sensor_id;sensor_type;location;lat;lon;timestamp;P1;durP1;ratioP1;P2;durP2;ratioP2
62696;SDS011;48761;42.680;23.312;2022-08-01T00:01:38;7.25;;;2.97;;
62696;SDS011;48761;42.680;23.312;2022-08-01T00:04:04;4.95;;;3.10;;
62696;SDS011;48761;42.680;23.312;2022-08-01T00:06:30;6.93;;;3.10;;
62696;SDS011;48761;42.680;23.312;2022-08-01T00:08:56;5.03;;;3.17;;
62696;SDS011;48761;42.680;23.312;2022-08-01T00:11:22;5.07;;;2.90;;
62696;SDS011;48761;42.680;23.312;2022-08-01T00:13:48;7.28;;;3.30;;
62696;SDS011;48761;42.680;23.312;2022-08-01T00:16:14;6.20;;;3.05;;
62696;SDS011;48761;42.680;23.312;2022-08-01T00:18:40;5.45;;;2.90;;
62696;SDS011;48761;42.680;23.312;2022-08-01T00:21:05;6.00;;;2.83;;
62696;SDS011;48761;42.680;23.312;2022-08-01T00:23:31;5.30;;;2.90;;
62696;SDS011;48761;42.680;23.312;2022-08-01T00:25:58;4.95;;;3.13;;
62696;SDS011;48761;42.680;23.312;2022-08-01T00:28:24;4.78;;;3.10;;
62696;SDS011;48761;42.680;23.312;2022-08-01T00:30:50;4.35;;;2.85;;
62696;SDS011;48761;42.680;23.312;2022-08-01T00:33:16;3.45;;;2.47;;
62696;SDS011;48761;42.680;23.312;2022-08-01T00:35:42;5.97;;;2.88;;
62696;SDS011;48761;42.680;23.312;2022-08-01T00:38:07;3.80;;;2.50;;
62696;SDS011;48761;42.680;23.312;2022-08-01T00:40:33;3.95;;;2.60;;
62696;SDS011;48761;42.680;23.312;2022-08-01T00:42:59;3.72;;;2.70;;
62696;SDS011;48761;42.680;23.312;2022-08-01T00:45:25;4.85;;;2.50;;
62696;SDS011;48761;42.680;23.312;2022-08-01T00:47:51;5.22;;;2.47;;
62696;SDS011;48761;42.680;23.312;2022-08-01T00:50:17;4.82;;;2.22;;
62696;SDS011;48761;42.680;23.312;2022-08-01T00:52:43;5.50;;;2.55;;
62696;SDS011;48761;42.680;23.312;2022-08-01T00:55:09;4.22;;;2.38;;
62696;SDS011;48761;42.680;23.312;2022-08-01T00:57:37;5.18;;;2.33;;
62696;SDS011;48761;42.680;23.312;2022-08-01T01:00:04;4.40;;;2.38;;
62696;SDS011;48761;42.680;23.312;2022-08-01T01:02:32;4.95;;;2.55;;
62696;SDS011;48761;42.680;23.312;2022-08-01T01:04:58;4.78;;;2.38;;
62696;SDS011;48761;42.680;23.312;2022-08-01T01:07:28;4.25;;;2.25;;
62696;SDS011;48761;42.680;23.312;2022-08-01T01:10:11;3.72;;;2.22;;
62696;SDS011;48761;42.680;23.312;2022-08-01T01:12:54;3.60;;;2.10;;
62696;SDS011;48761;42.680;23.312;2022-08-01T01:18:11;4.22;;;2.40;;
62696;SDS011;48761;42.680;23.312;2022-08-01T01:20:43;4.10;;;2.30;;
62696;SDS011;48761;42.680;23.312;2022-08-01T01:26:30;3.08;;;2.08;;
62696;SDS011;48761;42.680;23.312;2022-08-01T01:29:05;4.10;;;2.17;;
62696;SDS011;48761;42.680;23.312;2022-08-01T01:34:22;2.47;;;1.77;;
62696;SDS011;48761;42.680;23.312;2022-08-01T01:36:50;2.70;;;2.13;;
62696;SDS011;48761;42.680;23.312;2022-08-01T01:39:19;2.60;;;1.75;;
62696;SDS011;48761;42.680;23.312;2022-08-01T01:41:47;4.38;;;2.20;;
62696;SDS011;48761;42.680;23.312;2022-08-01T01:44:14;4.20;;;2.00;;
62696;SDS011;48761;42.680;23.312;2022-08-01T01:46:42;3.40;;;2.10;;
62696;SDS011;48761;42.680;23.312;2022-08-01T01:49:09;3.47;;;2.17;;
62696;SDS011;48761;42.680;23.312;2022-08-01T01:51:37;2.97;;;2.05;;
62696;SDS011;48761;42.680;23.312;2022-08-01T01:54:05;3.33;;;1.65;;
62696;SDS011;48761;42.680;23.312;2022-08-01T01:56:33;4.25;;;1.75;;
62696;SDS011;48761;42.680;23.312;2022-08-01T01:59:01;3.30;;;2.00;;
62696;SDS011;48761;42.680;23.312;2022-08-01T02:01:29;2.60;;;1.90;;
62696;SDS011;48761;42.680;23.312;2022-08-01T02:03:57;3.03;;;1.90;;
62696;SDS011;48761;42.680;23.312;2022-08-01T02:06:26;2.65;;;1.80;;
62696;SDS011;48761;42.680;23.312;2022-08-01T02:08:53;2.83;;;1.75;;
62696;SDS011;48761;42.680;23.312;2022-08-01T02:11:20;3.15;;;1.85;;
62696;SDS011;48761;42.680;23.312;2022-08-01T02:13:48;2.95;;;1.52;;
62696;SDS011;48761;42.680;23.312;2022-08-01T02:16:23;3.45;;;1.70;;
62696;SDS011;48761;42.680;23.312;2022-08-01T02:18:51;3.13;;;1.40;;
62696;SDS011;48761;42.680;23.312;2022-08-01T02:21:19;2.13;;;1.40;;
62696;SDS011;48761;42.680;23.312;2022-08-01T02:23:51;2.03;;;1.30;;
62696;SDS011;48761;42.680;23.312;2022-08-01T02:26:19;4.72;;;1.73;;
62696;SDS011;48761;42.680;23.312;2022-08-01T02:28:59;2.05;;;1.50;;
62696;SDS011;48761;42.680;23.312;2022-08-01T02:31:28;2.30;;;1.77;;
62696;SDS011;48761;42.680;23.312;2022-08-01T02:34:02;2.47;;;1.73;;
62696;SDS011;48761;42.680;23.312;2022-08-01T02:36:32;2.15;;;1.77;;
62696;SDS011;48761;42.680;23.312;2022-08-01T02:39:00;2.15;;;1.58;;
62696;SDS011;48761;42.680;23.312;2022-08-01T02:41:29;2.45;;;1.45;;
62696;SDS011;48761;42.680;23.312;2022-08-01T02:43:58;2.17;;;1.60;;
62696;SDS011;48761;42.680;23.312;2022-08-01T02:46:29;1.50;;;1.33;;
62696;SDS011;48761;42.680;23.312;2022-08-01T02:49:00;2.65;;;1.50;;
62696;SDS011;48761;42.680;23.312;2022-08-01T02:51:29;3.00;;;1.80;;
62696;SDS011;48761;42.680;23.312;2022-08-01T02:53:57;2.72;;;1.60;;
62696;SDS011;48761;42.680;23.312;2022-08-01T02:56:25;1.92;;;1.50;;
62696;SDS011;48761;42.680;23.312;2022-08-01T02:58:52;1.40;;;1.27;;
62696;SDS011;48761;42.680;23.312;2022-08-01T03:01:19;2.88;;;1.60;;
62696;SDS011;48761;42.680;23.312;2022-08-01T03:03:46;2.33;;;1.52;;
62696;SDS011;48761;42.680;23.312;2022-08-01T03:06:12;2.42;;;1.42;;
62696;SDS011;48761;42.680;23.312;2022-08-01T03:08:40;2.33;;;1.55;;
62696;SDS011;48761;42.680;23.312;2022-08-01T03:11:07;2.30;;;1.40;;
62696;SDS011;48761;42.680;23.312;2022-08-01T03:13:34;1.85;;;1.30;;
62696;SDS011;48761;42.680;23.312;2022-08-01T03:16:00;1.65;;;1.27;;
62696;SDS011;48761;42.680;23.312;2022-08-01T03:18:29;1.95;;;1.40;;
62696;SDS011;48761;42.680;23.312;2022-08-01T03:20:57;1.65;;;1.35;;
62696;SDS011;48761;42.680;23.312;2022-08-01T03:23:26;1.52;;;1.20;;
62696;SDS011;48761;42.680;23.312;2022-08-01T03:25:54;1.98;;;1.40;;
62696;SDS011;48761;42.680;23.312;2022-08-01T03:28:21;2.03;;;1.30;;
62696;SDS011;48761;42.680;23.312;2022-08-01T03:30:48;2.92;;;1.20;;
62696;SDS011;48761;42.680;23.312;2022-08-01T03:33:15;2.92;;;1.50;;
62696;SDS011;48761;42.680;23.312;2022-08-01T03:35:48;1.55;;;1.08;;
62696;SDS011;48761;42.680;23.312;2022-08-01T03:38:18;1.92;;;1.45;;
62696;SDS011;48761;42.680;23.312;2022-08-01T03:43:39;2.35;;;1.42;;
62696;SDS011;48761;42.680;23.312;2022-08-01T03:46:14;1.55;;;1.27;;
62696;SDS011;48761;42.680;23.312;2022-08-01T03:48:47;2.10;;;1.23;;
62696;SDS011;48761;42.680;23.312;2022-08-01T03:51:16;1.60;;;1.20;;
62696;SDS011;48761;42.680;23.312;2022-08-01T03:53:44;1.30;;;1.20;;
62696;SDS011;48761;42.680;23.312;2022-08-01T03:56:13;1.20;;;1.10;;
62696;SDS011;48761;42.680;23.312;2022-08-01T03:58:46;1.83;;;1.40;;
62696;SDS011;48761;42.680;23.312;2022-08-01T04:01:14;1.20;;;1.10;;
62696;SDS011;48761;42.680;23.312;2022-08-01T04:03:40;1.98;;;1.30;;
62696;SDS011;48761;42.680;23.312;2022-08-01T04:06:07;1.85;;;1.23;;
62696;SDS011;48761;42.680;23.312;2022-08-01T04:08:39;1.83;;;1.45;;
62696;SDS011;48761;42.680;23.312;2022-08-01T04:11:07;1.30;;;1.20;;
62696;SDS011;48761;42.680;23.312;2022-08-01T04:13:33;1.20;;;1.10;;
62696;SDS011;48761;42.680;23.312;2022-08-01T04:15:59;2.13;;;1.20;;
62696;SDS011;48761;42.680;23.312;2022-08-01T04:18:25;3.30;;;1.48;;
62696;SDS011;48761;42.680;23.312;2022-08-01T04:20:51;3.13;;;1.17;;
62696;SDS011;48761;42.680;23.312;2022-08-01T04:23:18;2.22;;;1.42;;
62696;SDS011;48761;42.680;23.312;2022-08-01T04:25:48;1.38;;;1.10;;
62696;SDS011;48761;42.680;23.312;2022-08-01T04:28:15;1.50;;;1.20;;
62696;SDS011;48761;42.680;23.312;2022-08-01T04:30:44;1.92;;;1.10;;
62696;SDS011;48761;42.680;23.312;2022-08-01T04:33:13;1.17;;;0.93;;
62696;SDS011;48761;42.680;23.312;2022-08-01T04:35:41;1.40;;;1.02;;
62696;SDS011;48761;42.680;23.312;2022-08-01T04:38:10;65.85;;;6.93;;
62696;SDS011;48761;42.680;23.312;2022-08-01T04:40:42;28.40;;;5.25;;
62696;SDS011;48761;42.680;23.312;2022-08-01T04:43:09;16.05;;;4.63;;
62696;SDS011;48761;42.680;23.312;2022-08-01T04:45:35;12.65;;;4.65;;
62696;SDS011;48761;42.680;23.312;2022-08-01T04:48:02;13.05;;;4.47;;
62696;SDS011;48761;42.680;23.312;2022-08-01T04:50:31;15.13;;;5.10;;
62696;SDS011;48761;42.680;23.312;2022-08-01T04:52:56;19.92;;;4.80;;
62696;SDS011;48761;42.680;23.312;2022-08-01T04:55:22;10.70;;;4.65;;
62696;SDS011;48761;42.680;23.312;2022-08-01T04:57:48;12.85;;;5.43;;
62696;SDS011;48761;42.680;23.312;2022-08-01T05:00:14;16.73;;;5.40;;
62696;SDS011;48761;42.680;23.312;2022-08-01T05:02:40;10.10;;;5.13;;
62696;SDS011;48761;42.680;23.312;2022-08-01T05:05:06;11.00;;;5.25;;
62696;SDS011;48761;42.680;23.312;2022-08-01T05:07:33;11.23;;;5.30;;
62696;SDS011;48761;42.680;23.312;2022-08-01T05:09:59;9.40;;;4.95;;
62696;SDS011;48761;42.680;23.312;2022-08-01T05:12:25;15.27;;;5.97;;
62696;SDS011;48761;42.680;23.312;2022-08-01T05:14:51;12.60;;;5.70;;
62696;SDS011;48761;42.680;23.312;2022-08-01T05:17:16;9.90;;;5.40;;
62696;SDS011;48761;42.680;23.312;2022-08-01T05:19:42;11.75;;;5.60;;
62696;SDS011;48761;42.680;23.312;2022-08-01T05:22:09;11.60;;;5.70;;
62696;SDS011;48761;42.680;23.312;2022-08-01T05:24:36;8.30;;;4.90;;
62696;SDS011;48761;42.680;23.312;2022-08-01T05:27:04;7.05;;;5.07;;
62696;SDS011;48761;42.680;23.312;2022-08-01T05:29:30;11.20;;;5.35;;
62696;SDS011;48761;42.680;23.312;2022-08-01T05:31:56;7.22;;;4.88;;
62696;SDS011;48761;42.680;23.312;2022-08-01T05:34:22;10.32;;;4.53;;
62696;SDS011;48761;42.680;23.312;2022-08-01T05:36:48;7.00;;;4.15;;
62696;SDS011;48761;42.680;23.312;2022-08-01T05:39:14;11.32;;;4.80;;
62696;SDS011;48761;42.680;23.312;2022-08-01T05:41:40;24.45;;;4.68;;
62696;SDS011;48761;42.680;23.312;2022-08-01T05:44:06;14.65;;;3.65;;
62696;SDS011;48761;42.680;23.312;2022-08-01T05:46:32;23.25;;;4.15;;
62696;SDS011;48761;42.680;23.312;2022-08-01T05:48:59;114.60;;;12.30;;
62696;SDS011;48761;42.680;23.312;2022-08-01T05:51:26;42.38;;;6.20;;
62696;SDS011;48761;42.680;23.312;2022-08-01T05:53:52;85.93;;;11.43;;
62696;SDS011;48761;42.680;23.312;2022-08-01T05:56:18;42.88;;;5.38;;
62696;SDS011;48761;42.680;23.312;2022-08-01T05:58:44;38.63;;;5.88;;
62696;SDS011;48761;42.680;23.312;2022-08-01T06:01:10;33.60;;;5.18;;
62696;SDS011;48761;42.680;23.312;2022-08-01T06:03:36;37.40;;;4.90;;
62696;SDS011;48761;42.680;23.312;2022-08-01T06:06:02;32.20;;;5.70;;
62696;SDS011;48761;42.680;23.312;2022-08-01T06:08:28;25.70;;;4.90;;
62696;SDS011;48761;42.680;23.312;2022-08-01T06:10:56;22.88;;;5.10;;
62696;SDS011;48761;42.680;23.312;2022-08-01T06:13:22;30.80;;;4.88;;
62696;SDS011;48761;42.680;23.312;2022-08-01T06:15:48;34.03;;;5.40;;
62696;SDS011;48761;42.680;23.312;2022-08-01T06:18:14;26.65;;;4.57;;
62696;SDS011;48761;42.680;23.312;2022-08-01T06:20:40;23.55;;;5.07;;
62696;SDS011;48761;42.680;23.312;2022-08-01T06:23:06;44.03;;;6.57;;
62696;SDS011;48761;42.680;23.312;2022-08-01T06:25:32;35.75;;;6.00;;
62696;SDS011;48761;42.680;23.312;2022-08-01T06:27:58;32.22;;;5.40;;
62696;SDS011;48761;42.680;23.312;2022-08-01T06:30:25;28.25;;;5.45;;
62696;SDS011;48761;42.680;23.312;2022-08-01T06:32:51;24.38;;;4.88;;
62696;SDS011;48761;42.680;23.312;2022-08-01T06:35:17;14.98;;;3.78;;
62696;SDS011;48761;42.680;23.312;2022-08-01T06:37:43;28.52;;;3.72;;
62696;SDS011;48761;42.680;23.312;2022-08-01T06:40:10;73.85;;;7.40;;
62696;SDS011;48761;42.680;23.312;2022-08-01T06:42:36;32.65;;;4.97;;
62696;SDS011;48761;42.680;23.312;2022-08-01T06:45:09;79.05;;;9.13;;
62696;SDS011;48761;42.680;23.312;2022-08-01T06:47:37;40.20;;;5.45;;
62696;SDS011;48761;42.680;23.312;2022-08-01T06:50:04;50.05;;;5.68;;
62696;SDS011;48761;42.680;23.312;2022-08-01T06:52:31;49.10;;;5.88;;
62696;SDS011;48761;42.680;23.312;2022-08-01T06:54:57;25.30;;;5.00;;
62696;SDS011;48761;42.680;23.312;2022-08-01T06:57:23;28.42;;;4.70;;
62696;SDS011;48761;42.680;23.312;2022-08-01T06:59:49;41.00;;;5.13;;
62696;SDS011;48761;42.680;23.312;2022-08-01T07:02:15;30.45;;;5.00;;
62696;SDS011;48761;42.680;23.312;2022-08-01T07:04:41;28.05;;;4.50;;
62696;SDS011;48761;42.680;23.312;2022-08-01T07:07:06;22.98;;;4.05;;
62696;SDS011;48761;42.680;23.312;2022-08-01T07:09:32;21.70;;;3.60;;
62696;SDS011;48761;42.680;23.312;2022-08-01T07:11:58;21.55;;;4.47;;
62696;SDS011;48761;42.680;23.312;2022-08-01T07:14:24;15.23;;;3.83;;
62696;SDS011;48761;42.680;23.312;2022-08-01T07:16:50;24.80;;;4.47;;
62696;SDS011;48761;42.680;23.312;2022-08-01T07:19:16;16.25;;;3.63;;
62696;SDS011;48761;42.680;23.312;2022-08-01T07:21:42;20.73;;;3.72;;
62696;SDS011;48761;42.680;23.312;2022-08-01T07:24:09;16.42;;;3.53;;
62696;SDS011;48761;42.680;23.312;2022-08-01T07:26:36;15.10;;;3.42;;
62696;SDS011;48761;42.680;23.312;2022-08-01T07:29:02;45.03;;;6.22;;
62696;SDS011;48761;42.680;23.312;2022-08-01T07:31:28;69.97;;;6.78;;
62696;SDS011;48761;42.680;23.312;2022-08-01T07:33:54;39.03;;;5.90;;
62696;SDS011;48761;42.680;23.312;2022-08-01T07:36:20;50.38;;;6.22;;
62696;SDS011;48761;42.680;23.312;2022-08-01T07:38:46;36.15;;;5.70;;
62696;SDS011;48761;42.680;23.312;2022-08-01T07:41:12;31.98;;;5.35;;
62696;SDS011;48761;42.680;23.312;2022-08-01T07:43:38;37.88;;;8.63;;
62696;SDS011;48761;42.680;23.312;2022-08-01T07:46:04;25.73;;;5.90;;
62696;SDS011;48761;42.680;23.312;2022-08-01T07:48:30;39.10;;;5.30;;
62696;SDS011;48761;42.680;23.312;2022-08-01T07:50:56;25.00;;;5.63;;
62696;SDS011;48761;42.680;23.312;2022-08-01T07:53:22;37.42;;;7.35;;
62696;SDS011;48761;42.680;23.312;2022-08-01T07:55:48;31.30;;;5.25;;
62696;SDS011;48761;42.680;23.312;2022-08-01T07:58:15;32.00;;;5.20;;
62696;SDS011;48761;42.680;23.312;2022-08-01T08:00:42;25.10;;;5.10;;
62696;SDS011;48761;42.680;23.312;2022-08-01T08:03:08;20.20;;;5.25;;
62696;SDS011;48761;42.680;23.312;2022-08-01T08:05:34;22.38;;;5.10;;
62696;SDS011;48761;42.680;23.312;2022-08-01T08:08:09;35.58;;;5.10;;
62696;SDS011;48761;42.680;23.312;2022-08-01T08:10:35;28.20;;;5.10;;
62696;SDS011;48761;42.680;23.312;2022-08-01T08:13:02;32.92;;;5.60;;
62696;SDS011;48761;42.680;23.312;2022-08-01T08:15:28;26.05;;;5.97;;
62696;SDS011;48761;42.680;23.312;2022-08-01T08:17:54;32.15;;;5.97;;
62696;SDS011;48761;42.680;23.312;2022-08-01T08:20:20;30.35;;;7.00;;
62696;SDS011;48761;42.680;23.312;2022-08-01T08:22:46;22.27;;;5.93;;
62696;SDS011;48761;42.680;23.312;2022-08-01T08:25:12;30.05;;;6.50;;
62696;SDS011;48761;42.680;23.312;2022-08-01T08:27:38;32.33;;;6.05;;
62696;SDS011;48761;42.680;23.312;2022-08-01T08:30:04;561.80;;;42.30;;
62696;SDS011;48761;42.680;23.312;2022-08-01T08:32:31;310.50;;;26.77;;
62696;SDS011;48761;42.680;23.312;2022-08-01T08:34:57;160.68;;;14.35;;
62696;SDS011;48761;42.680;23.312;2022-08-01T08:37:23;124.57;;;12.52;;
62696;SDS011;48761;42.680;23.312;2022-08-01T08:39:49;118.43;;;11.20;;
62696;SDS011;48761;42.680;23.312;2022-08-01T08:42:15;104.32;;;10.82;;
62696;SDS011;48761;42.680;23.312;2022-08-01T08:44:41;120.53;;;11.48;;
62696;SDS011;48761;42.680;23.312;2022-08-01T08:47:07;78.82;;;9.07;;
62696;SDS011;48761;42.680;23.312;2022-08-01T08:49:35;58.55;;;7.20;;
62696;SDS011;48761;42.680;23.312;2022-08-01T08:52:02;79.03;;;8.38;;
62696;SDS011;48761;42.680;23.312;2022-08-01T08:54:29;69.97;;;7.75;;
62696;SDS011;48761;42.680;23.312;2022-08-01T08:56:56;48.95;;;7.53;;
62696;SDS011;48761;42.680;23.312;2022-08-01T08:59:23;47.60;;;6.72;;
62696;SDS011;48761;42.680;23.312;2022-08-01T09:01:49;49.67;;;7.22;;
62696;SDS011;48761;42.680;23.312;2022-08-01T09:04:15;40.05;;;6.43;;
62696;SDS011;48761;42.680;23.312;2022-08-01T09:06:41;36.70;;;5.85;;
62696;SDS011;48761;42.680;23.312;2022-08-01T09:09:07;37.58;;;5.93;;
62696;SDS011;48761;42.680;23.312;2022-08-01T09:11:33;36.65;;;5.65;;
62696;SDS011;48761;42.680;23.312;2022-08-01T09:14:01;35.65;;;5.40;;
62696;SDS011;48761;42.680;23.312;2022-08-01T09:16:34;38.55;;;5.70;;
62696;SDS011;48761;42.680;23.312;2022-08-01T09:19:08;23.77;;;5.28;;
62696;SDS011;48761;42.680;23.312;2022-08-01T09:21:36;30.85;;;5.30;;
62696;SDS011;48761;42.680;23.312;2022-08-01T09:24:03;30.95;;;5.63;;
62696;SDS011;48761;42.680;23.312;2022-08-01T09:26:30;27.60;;;5.20;;
62696;SDS011;48761;42.680;23.312;2022-08-01T09:29:04;22.67;;;4.60;;
62696;SDS011;48761;42.680;23.312;2022-08-01T09:31:50;24.10;;;5.00;;
62696;SDS011;48761;42.680;23.312;2022-08-01T09:34:16;30.67;;;5.05;;
62696;SDS011;48761;42.680;23.312;2022-08-01T09:36:51;21.30;;;4.78;;
62696;SDS011;48761;42.680;23.312;2022-08-01T09:39:19;25.23;;;4.82;;
62696;SDS011;48761;42.680;23.312;2022-08-01T09:41:46;16.90;;;4.65;;
62696;SDS011;48761;42.680;23.312;2022-08-01T09:44:13;22.33;;;4.13;;
62696;SDS011;48761;42.680;23.312;2022-08-01T09:46:51;21.13;;;4.20;;
62696;SDS011;48761;42.680;23.312;2022-08-01T09:49:27;20.27;;;4.05;;
62696;SDS011;48761;42.680;23.312;2022-08-01T09:51:58;11.40;;;3.83;;
62696;SDS011;48761;42.680;23.312;2022-08-01T09:54:28;14.85;;;4.30;;
62696;SDS011;48761;42.680;23.312;2022-08-01T09:57:06;15.02;;;4.35;;
62696;SDS011;48761;42.680;23.312;2022-08-01T09:59:37;18.85;;;3.78;;
62696;SDS011;48761;42.680;23.312;2022-08-01T10:02:04;17.20;;;4.10;;
62696;SDS011;48761;42.680;23.312;2022-08-01T10:04:30;16.40;;;4.13;;
62696;SDS011;48761;42.680;23.312;2022-08-01T10:07:03;12.45;;;3.47;;
62696;SDS011;48761;42.680;23.312;2022-08-01T10:09:32;13.73;;;3.50;;
62696;SDS011;48761;42.680;23.312;2022-08-01T10:12:00;17.63;;;3.70;;
62696;SDS011;48761;42.680;23.312;2022-08-01T10:14:27;10.95;;;3.63;;
62696;SDS011;48761;42.680;23.312;2022-08-01T10:16:55;17.50;;;3.30;;
62696;SDS011;48761;42.680;23.312;2022-08-01T10:19:25;17.98;;;3.88;;
62696;SDS011;48761;42.680;23.312;2022-08-01T10:21:53;10.55;;;3.17;;
62696;SDS011;48761;42.680;23.312;2022-08-01T10:24:21;12.68;;;2.97;;
62696;SDS011;48761;42.680;23.312;2022-08-01T10:26:48;14.23;;;3.15;;
62696;SDS011;48761;42.680;23.312;2022-08-01T10:29:16;12.85;;;3.47;;
62696;SDS011;48761;42.680;23.312;2022-08-01T10:31:45;9.75;;;3.28;;
62696;SDS011;48761;42.680;23.312;2022-08-01T10:34:12;7.63;;;2.80;;
62696;SDS011;48761;42.680;23.312;2022-08-01T10:36:39;15.13;;;3.08;;
62696;SDS011;48761;42.680;23.312;2022-08-01T10:39:05;12.45;;;3.10;;
62696;SDS011;48761;42.680;23.312;2022-08-01T10:41:32;7.78;;;2.53;;
62696;SDS011;48761;42.680;23.312;2022-08-01T10:44:00;7.43;;;2.80;;
62696;SDS011;48761;42.680;23.312;2022-08-01T10:46:26;13.40;;;3.05;;
62696;SDS011;48761;42.680;23.312;2022-08-01T10:48:55;11.60;;;3.13;;
62696;SDS011;48761;42.680;23.312;2022-08-01T10:51:26;14.27;;;2.75;;
62696;SDS011;48761;42.680;23.312;2022-08-01T10:53:54;8.77;;;2.45;;
62696;SDS011;48761;42.680;23.312;2022-08-01T10:56:20;10.23;;;2.67;;
62696;SDS011;48761;42.680;23.312;2022-08-01T10:58:47;8.20;;;2.40;;
62696;SDS011;48761;42.680;23.312;2022-08-01T11:03:43;6.93;;;2.50;;
62696;SDS011;48761;42.680;23.312;2022-08-01T11:06:42;5.28;;;2.50;;
62696;SDS011;48761;42.680;23.312;2022-08-01T11:09:29;5.38;;;2.40;;
62696;SDS011;48761;42.680;23.312;2022-08-01T11:12:07;9.77;;;2.80;;
62696;SDS011;48761;42.680;23.312;2022-08-01T11:14:33;6.00;;;2.20;;
62696;SDS011;48761;42.680;23.312;2022-08-01T11:20:07;5.72;;;2.35;;
62696;SDS011;48761;42.680;23.312;2022-08-01T11:25:24;6.95;;;2.17;;
62696;SDS011;48761;42.680;23.312;2022-08-01T11:30:40;6.03;;;2.60;;
62696;SDS011;48761;42.680;23.312;2022-08-01T11:33:06;5.20;;;2.17;;
62696;SDS011;48761;42.680;23.312;2022-08-01T11:35:34;4.75;;;2.38;;
62696;SDS011;48761;42.680;23.312;2022-08-01T11:41:08;5.53;;;2.00;;
62696;SDS011;48761;42.680;23.312;2022-08-01T11:43:34;6.55;;;2.53;;
62696;SDS011;48761;42.680;23.312;2022-08-01T11:46:00;4.60;;;1.90;;
62696;SDS011;48761;42.680;23.312;2022-08-01T11:48:26;4.97;;;2.00;;
62696;SDS011;48761;42.680;23.312;2022-08-01T11:50:52;5.63;;;2.00;;
62696;SDS011;48761;42.680;23.312;2022-08-01T11:53:19;5.00;;;2.00;;
62696;SDS011;48761;42.680;23.312;2022-08-01T11:55:47;4.63;;;2.30;;
62696;SDS011;48761;42.680;23.312;2022-08-01T11:58:15;3.65;;;2.00;;
62696;SDS011;48761;42.680;23.312;2022-08-01T12:00:56;5.60;;;2.05;;
62696;SDS011;48761;42.680;23.312;2022-08-01T12:03:24;3.30;;;1.95;;
62696;SDS011;48761;42.680;23.312;2022-08-01T12:05:51;5.93;;;2.05;;
62696;SDS011;48761;42.680;23.312;2022-08-01T12:10:52;8.32;;;1.92;;
62696;SDS011;48761;42.680;23.312;2022-08-01T12:13:19;5.20;;;1.90;;
62696;SDS011;48761;42.680;23.312;2022-08-01T12:15:45;3.65;;;1.77;;
62696;SDS011;48761;42.680;23.312;2022-08-01T12:18:11;4.00;;;1.60;;
62696;SDS011;48761;42.680;23.312;2022-08-01T12:20:38;3.97;;;1.65;;
62696;SDS011;48761;42.680;23.312;2022-08-01T12:23:09;3.58;;;1.70;;
62696;SDS011;48761;42.680;23.312;2022-08-01T12:25:37;2.78;;;1.48;;
62696;SDS011;48761;42.680;23.312;2022-08-01T12:28:04;3.45;;;1.92;;
62696;SDS011;48761;42.680;23.312;2022-08-01T12:30:32;2.72;;;1.60;;
62696;SDS011;48761;42.680;23.312;2022-08-01T12:32:59;3.72;;;1.55;;
62696;SDS011;48761;42.680;23.312;2022-08-01T12:35:26;3.63;;;1.70;;
62696;SDS011;48761;42.680;23.312;2022-08-01T12:37:54;6.25;;;1.50;;
62696;SDS011;48761;42.680;23.312;2022-08-01T12:42:56;4.60;;;1.65;;
62696;SDS011;48761;42.680;23.312;2022-08-01T12:45:27;2.80;;;1.70;;
62696;SDS011;48761;42.680;23.312;2022-08-01T12:47:56;2.78;;;1.63;;
62696;SDS011;48761;42.680;23.312;2022-08-01T12:50:23;4.00;;;1.80;;
62696;SDS011;48761;42.680;23.312;2022-08-01T12:52:51;2.75;;;1.70;;
62696;SDS011;48761;42.680;23.312;2022-08-01T12:55:18;4.38;;;1.65;;
62696;SDS011;48761;42.680;23.312;2022-08-01T12:57:46;2.33;;;1.50;;
62696;SDS011;48761;42.680;23.312;2022-08-01T13:00:15;5.63;;;1.80;;
62696;SDS011;48761;42.680;23.312;2022-08-01T13:02:43;2.10;;;1.45;;
62696;SDS011;48761;42.680;23.312;2022-08-01T13:05:10;2.40;;;1.70;;
62696;SDS011;48761;42.680;23.312;2022-08-01T13:07:47;2.65;;;1.50;;
62696;SDS011;48761;42.680;23.312;2022-08-01T13:10:23;2.40;;;1.55;;
62696;SDS011;48761;42.680;23.312;2022-08-01T13:12:51;2.22;;;1.40;;
62696;SDS011;48761;42.680;23.312;2022-08-01T13:15:20;2.42;;;1.50;;
62696;SDS011;48761;42.680;23.312;2022-08-01T13:17:48;2.25;;;1.50;;
62696;SDS011;48761;42.680;23.312;2022-08-01T13:20:21;2.70;;;1.60;;
62696;SDS011;48761;42.680;23.312;2022-08-01T13:22:48;2.38;;;1.55;;
62696;SDS011;48761;42.680;23.312;2022-08-01T13:25:14;2.35;;;1.40;;
62696;SDS011;48761;42.680;23.312;2022-08-01T13:27:42;2.30;;;1.30;;
62696;SDS011;48761;42.680;23.312;2022-08-01T13:30:15;2.53;;;1.52;;
62696;SDS011;48761;42.680;23.312;2022-08-01T13:32:43;3.30;;;1.70;;
62696;SDS011;48761;42.680;23.312;2022-08-01T13:35:24;2.28;;;1.45;;
62696;SDS011;48761;42.680;23.312;2022-08-01T13:37:50;2.35;;;1.45;;
62696;SDS011;48761;42.680;23.312;2022-08-01T13:40:23;1.70;;;1.45;;
62696;SDS011;48761;42.680;23.312;2022-08-01T13:42:50;2.42;;;1.40;;
62696;SDS011;48761;42.680;23.312;2022-08-01T13:45:16;4.57;;;1.50;;
62696;SDS011;48761;42.680;23.312;2022-08-01T13:47:42;2.63;;;1.73;;
62696;SDS011;48761;42.680;23.312;2022-08-01T13:50:08;3.33;;;1.55;;
62696;SDS011;48761;42.680;23.312;2022-08-01T13:52:34;1.88;;;1.35;;
62696;SDS011;48761;42.680;23.312;2022-08-01T13:55:01;1.80;;;1.35;;
62696;SDS011;48761;42.680;23.312;2022-08-01T13:57:27;1.98;;;1.38;;
62696;SDS011;48761;42.680;23.312;2022-08-01T13:59:54;1.58;;;1.30;;
62696;SDS011;48761;42.680;23.312;2022-08-01T14:02:20;1.83;;;1.40;;
62696;SDS011;48761;42.680;23.312;2022-08-01T14:04:46;2.20;;;1.30;;
62696;SDS011;48761;42.680;23.312;2022-08-01T14:07:12;2.88;;;1.35;;
62696;SDS011;48761;42.680;23.312;2022-08-01T14:09:38;2.85;;;1.30;;
62696;SDS011;48761;42.680;23.312;2022-08-01T14:12:04;1.65;;;1.23;;
62696;SDS011;48761;42.680;23.312;2022-08-01T14:14:30;1.98;;;1.50;;
62696;SDS011;48761;42.680;23.312;2022-08-01T14:16:56;1.75;;;1.30;;
62696;SDS011;48761;42.680;23.312;2022-08-01T14:19:22;1.45;;;1.35;;
62696;SDS011;48761;42.680;23.312;2022-08-01T14:21:48;2.45;;;1.60;;
62696;SDS011;48761;42.680;23.312;2022-08-01T14:24:14;1.83;;;1.23;;
62696;SDS011;48761;42.680;23.312;2022-08-01T14:26:39;2.45;;;1.40;;
62696;SDS011;48761;42.680;23.312;2022-08-01T14:29:05;1.70;;;1.35;;
62696;SDS011;48761;42.680;23.312;2022-08-01T14:31:31;1.63;;;1.30;;
62696;SDS011;48761;42.680;23.312;2022-08-01T14:33:57;1.60;;;1.20;;
62696;SDS011;48761;42.680;23.312;2022-08-01T14:36:23;1.88;;;1.40;;
62696;SDS011;48761;42.680;23.312;2022-08-01T14:38:49;3.45;;;1.25;;
62696;SDS011;48761;42.680;23.312;2022-08-01T14:41:15;138.00;;;11.38;;
62696;SDS011;48761;42.680;23.312;2022-08-01T14:43:41;129.63;;;9.90;;
62696;SDS011;48761;42.680;23.312;2022-08-01T14:46:07;124.32;;;11.85;;
62696;SDS011;48761;42.680;23.312;2022-08-01T14:48:33;97.82;;;8.52;;
62696;SDS011;48761;42.680;23.312;2022-08-01T14:50:59;38.92;;;4.05;;
62696;SDS011;48761;42.680;23.312;2022-08-01T14:53:25;36.17;;;4.18;;
62696;SDS011;48761;42.680;23.312;2022-08-01T14:55:51;52.45;;;6.40;;
62696;SDS011;48761;42.680;23.312;2022-08-01T14:58:17;30.08;;;3.42;;
62696;SDS011;48761;42.680;23.312;2022-08-01T15:00:43;20.58;;;3.40;;
62696;SDS011;48761;42.680;23.312;2022-08-01T15:03:08;25.95;;;3.30;;